Time;durP1;ratioP1;P1;durP2;ratioP2;P2;SDS_P1;SDS_P2;PMS_P1;PMS_P2;Temp;Humidity;BMP_temperature;BMP_pressure;BME280_temperature;BME280_humidity;BME280_pressure;Samples;Min_cycle;Max_cycle;Signal;HPM_P1;HPM_P2
2022/01/06 00:00:51;;;;;;;;;;;;;;;-0.26;81.60;98743.91;5072072;28;20277;-59
2022/01/06 00:03:16;;;;;;;6.33;5.30;;;;;;;-0.29;81.46;98745.00;5071635;28;19916;-58
2022/01/06 00:05:42;;;;;;;8.83;5.60;;;;;;;-0.43;81.82;98732.41;5072324;28;20100;-60
2022/01/06 00:08:07;;;;;;;8.03;5.53;;;;;;;-0.94;81.37;98639.53;5071986;28;20059;-58
2022/01/06 00:10:33;;;;;;;5.27;4.57;;;;;;;-0.33;81.42;98741.84;5054002;28;20040;-57
2022/01/06 00:25:48;;;;;;;4.67;4.27;;;;;;;-0.45;81.46;98731.72;5071485;28;20262;-56
2022/01/06 00:28:13;;;;;;;5.97;4.83;;;;;;;-0.44;81.07;98736.81;5071367;28;20269;-59
2022/01/06 00:30:39;;;;;;;7.63;5.23;;;;;;;-0.43;81.61;98738.44;5070475;28;20291;-57
2022/01/06 00:33:05;;;;;;;6.57;5.00;;;;;;;-0.37;81.66;98744.91;5072239;28;20487;-60
2022/01/06 00:35:31;;;;;;;8.93;5.80;;;;;;;-0.41;81.17;98718.22;5072040;28;20037;-60
2022/01/06 00:37:57;;;;;;;6.60;4.60;;;;;;;-0.35;80.42;98720.25;5071391;28;20274;-58
2022/01/06 00:40:22;;;;;;;7.80;5.60;;;;;;;-0.41;80.14;98722.63;5071436;28;20680;-59
2022/01/06 00:42:48;;;;;;;6.73;5.67;;;;;;;-0.55;80.85;98703.00;5071230;28;20537;-56
2022/01/06 00:45:14;;;;;;;7.40;5.70;;;;;;;-0.55;81.34;98713.44;5075450;28;20456;-52
2022/01/06 00:47:41;;;;;;;6.77;6.00;;;;;;;-0.46;81.41;98722.22;5075269;28;20508;-58
2022/01/06 00:50:07;;;;;;;6.13;4.93;;;;;;;-0.46;81.18;98715.19;5074403;28;20041;-59
2022/01/06 00:52:33;;;;;;;8.47;6.00;;;;;;;-0.45;81.46;98702.94;5073331;28;20638;-56
2022/01/06 00:54:58;;;;;;;8.07;5.20;;;;;;;-0.59;80.76;98670.22;5071601;28;20263;-59
2022/01/06 00:57:24;;;;;;;6.53;5.83;;;;;;;-0.41;81.15;98710.38;5074826;28;20623;-59
2022/01/06 00:59:49;;;;;;;7.10;5.20;;;;;;;-0.47;81.00;98704.88;5075117;28;20071;-57
2022/01/06 01:02:15;;;;;;;7.83;6.00;;;;;;;-0.46;80.75;98704.75;5075132;28;20136;-56
2022/01/06 01:04:41;;;;;;;5.97;5.37;;;;;;;-0.80;80.90;98662.59;5074928;28;20074;-56
2022/01/06 01:07:06;;;;;;;9.30;5.47;;;;;;;-0.69;80.81;98690.34;5074927;28;20392;-59
2022/01/06 01:09:32;;;;;;;6.90;6.00;;;;;;;-0.64;81.34;98703.81;5074742;28;20044;-59
2022/01/06 01:12:02;;;;;;;7.47;4.97;;;;;;;-0.89;80.92;98652.97;5074744;28;20135;-60
2022/01/06 01:14:31;;;;;;;5.90;4.30;;;;;;;-0.41;81.02;98706.94;5075000;28;20055;-57
2022/01/06 01:16:59;;;;;;;7.33;4.97;;;;;;;-0.32;80.54;98704.25;5074830;28;20278;-59
2022/01/06 01:19:26;;;;;;;9.23;5.90;;;;;;;-0.53;80.62;98654.00;5074575;28;20270;-57
2022/01/06 01:21:53;;;;;;;7.93;5.80;;;;;;;-0.41;80.65;98699.06;5075274;28;20270;-58
2022/01/06 01:24:19;;;;;;;7.83;6.37;;;;;;;-0.49;81.05;98685.91;5074462;28;20292;-60
2022/01/06 01:26:44;;;;;;;6.13;5.37;;;;;;;-0.42;80.97;98697.44;5074331;28;20271;-60
2022/01/06 01:29:15;;;;;;;7.33;5.63;;;;;;;-0.45;80.75;98693.31;5074695;28;20278;-58
2022/01/06 01:31:45;;;;;;;5.40;4.83;;;;;;;-0.46;80.10;98693.47;5074421;28;20133;-58
2022/01/06 01:34:12;;;;;;;6.93;5.10;;;;;;;-0.70;80.34;98662.56;5074502;28;20270;-59
2022/01/06 01:36:39;;;;;;;17.13;8.07;;;;;;;-0.56;80.70;98690.06;5075052;28;20294;-59
2022/01/06 01:39:06;;;;;;;5.77;4.77;;;;;;;-0.55;80.74;98692.53;5073855;28;20774;-56
2022/01/06 01:41:32;;;;;;;6.27;5.00;;;;;;;-0.56;81.08;98677.00;5074041;28;20274;-59
2022/01/06 01:43:58;;;;;;;8.17;5.57;;;;;;;-0.28;81.01;98706.63;5074234;28;20063;-58
2022/01/06 01:46:29;;;;;;;7.47;5.57;;;;;;;-0.22;80.60;98685.94;5074180;28;20271;-57
2022/01/06 01:49:16;;;;;;;9.27;5.50;;;;;;;-0.08;80.19;98708.16;5074393;28;20079;-57
2022/01/06 01:51:43;;;;;;;6.37;5.40;;;;;;;-0.10;80.17;98691.78;5074296;28;20342;-55
2022/01/06 01:54:09;;;;;;;7.90;5.33;;;;;;;-0.05;79.90;98692.16;5073956;28;20258;-57
2022/01/06 01:56:35;;;;;;;5.20;4.70;;;;;;;-0.07;80.01;98687.06;5073846;28;20259;-60
2022/01/06 01:59:00;;;;;;;11.80;5.13;;;;;;;-0.09;79.49;98688.19;5073802;28;20403;-56
2022/01/06 02:01:26;;;;;;;6.03;4.37;;;;;;;-0.02;79.95;98695.31;5073861;28;20282;-55
2022/01/06 02:03:51;;;;;;;6.23;4.17;;;;;;;-0.14;78.62;98659.84;5073587;28;20037;-57
2022/01/06 02:06:18;;;;;;;5.43;4.30;;;;;;;0.03;79.22;98700.13;5074123;28;20460;-59
2022/01/06 02:08:44;;;;;;;6.43;4.00;;;;;;;-0.24;78.89;98658.28;5073731;28;20059;-57
2022/01/06 02:11:09;;;;;;;5.17;3.93;;;;;;;-0.04;78.81;98696.44;5073521;28;20841;-59
2022/01/06 02:13:52;;;;;;;7.60;5.70;;;;;;;-0.26;79.52;98657.59;5073653;28;20025;-58
2022/01/06 02:16:26;;;;;;;6.17;5.03;;;;;;;-0.27;79.19;98648.09;5073462;28;20102;-60
2022/01/06 02:18:52;;;;;;;7.27;4.50;;;;;;;0.03;79.25;98687.06;5073621;28;20271;-58
2022/01/06 02:21:19;;;;;;;5.77;4.83;;;;;;;-0.14;78.98;98659.03;5074328;28;20263;-60
2022/01/06 02:23:44;;;;;;;6.90;5.03;;;;;;;-0.13;79.89;98685.06;5073738;28;20271;-57
2022/01/06 02:26:11;;;;;;;6.37;4.77;;;;;;;-0.26;80.09;98665.44;5073388;28;20610;-57
2022/01/06 02:28:37;;;;;;;11.27;5.33;;;;;;;-0.12;80.11;98672.78;5073597;28;20034;-55
2022/01/06 02:31:03;;;;;;;5.43;4.30;;;;;;;-0.12;80.33;98664.94;5073685;28;20348;-60
2022/01/06 02:33:29;;;;;;;5.93;5.10;;;;;;;-0.03;79.71;98688.44;5072627;28;20721;-57
2022/01/06 02:35:55;;;;;;;10.47;5.00;;;;;;;-0.06;80.57;98674.81;5074385;28;20263;-58
2022/01/06 02:38:22;;;;;;;7.90;5.27;;;;;;;-0.09;80.42;98672.50;5073708;28;20508;-59
2022/01/06 02:40:49;;;;;;;5.90;4.93;;;;;;;-0.14;79.96;98678.16;5073037;28;20758;-58
2022/01/06 02:43:18;;;;;;;6.47;5.03;;;;;;;-0.17;80.36;98675.84;5073437;28;20294;-54
2022/01/06 02:45:44;;;;;;;;;;;;;;;-0.09;80.65;98683.78;5073739;28;20611;-56
2022/01/06 02:48:10;;;;;;;7.33;5.93;;;;;;;-0.16;80.28;98672.25;5073057;28;19965;-61
2022/01/06 02:50:42;;;;;;;12.40;7.77;;;;;;;-0.31;81.03;98677.13;5072932;28;20744;-57
2022/01/06 02:53:09;;;;;;;10.10;6.40;;;;;;;-0.54;81.24;98667.22;5072878;28;20036;-54
2022/01/06 02:55:37;;;;;;;15.33;8.87;;;;;;;-0.42;81.76;98679.94;5072652;28;20350;-58
2022/01/06 02:58:02;;;;;;;16.97;10.30;;;;;;;-0.55;81.65;98665.56;5072582;28;20770;-59
2022/01/06 03:00:28;;;;;;;13.73;10.10;;;;;;;-0.43;81.91;98665.22;5072410;28;20262;-59
2022/01/06 03:02:53;;;;;;;12.50;9.70;;;;;;;-0.32;81.96;98672.88;5072789;28;20115;-59
2022/01/06 03:05:19;;;;;;;10.53;7.83;;;;;;;-0.24;82.15;98682.63;5071721;28;20035;-55
2022/01/06 03:07:46;;;;;;;10.83;9.00;;;;;;;-0.25;81.42;98661.84;5073354;28;20057;-57
2022/01/06 03:10:15;;;;;;;9.23;7.10;;;;;;;-0.22;80.92;98677.25;5072470;28;20055;-56
2022/01/06 03:12:41;;;;;;;10.02;6.40;;;;;;;-0.41;81.45;98663.28;5072527;28;20301;-58
2022/01/06 03:15:08;;;;;;;10.50;8.03;;;;;;;-0.37;82.24;98688.19;5072744;28;20090;-58
2022/01/06 03:17:35;;;;;;;11.93;7.30;;;;;;;-0.56;82.42;98650.84;5072261;28;20673;-58
2022/01/06 03:20:01;;;;;;;14.00;8.17;;;;;;;-0.48;82.68;98688.38;5072358;28;20762;-58
2022/01/06 03:22:28;;;;;;;14.67;8.50;;;;;;;-0.57;82.67;98673.56;5071687;28;20672;-58
2022/01/06 03:24:54;;;;;;;9.30;8.30;;;;;;;-0.58;83.49;98671.88;5072421;28;20344;-57
2022/01/06 03:27:19;;;;;;;9.83;6.93;;;;;;;-0.44;82.91;98684.50;5071904;28;20032;-53
2022/01/06 03:29:45;;;;;;;9.37;7.57;;;;;;;-0.28;82.81;98683.06;5072148;28;20071;-58
2022/01/06 03:32:10;;;;;;;14.27;8.90;;;;;;;-0.25;82.10;98677.56;5072208;28;20062;-57
2022/01/06 03:34:37;;;;;;;12.03;8.40;;;;;;;-0.22;82.30;98680.69;5070885;28;20059;-54
2022/01/06 03:37:05;;;;;;;14.43;8.43;;;;;;;-0.18;82.44;98689.06;5072534;28;20483;-55
2022/01/06 03:39:31;;;;;;;10.37;8.13;;;;;;;-0.21;82.71;98677.13;5072165;28;20271;-59
2022/01/06 03:41:56;;;;;;;9.93;8.10;;;;;;;-0.17;82.39;98681.09;5071872;28;20333;-57
2022/01/06 03:44:22;;;;;;;12.93;9.07;;;;;;;-0.13;81.96;98664.13;5071912;28;20046;-59
2022/01/06 03:46:54;;;;;;;12.87;9.10;;;;;;;-0.07;82.52;98681.03;5071986;28;20088;-55
2022/01/06 03:49:20;;;;;;;14.50;10.00;;;;;;;-0.28;82.38;98672.63;5072007;28;20048;-51
2022/01/06 03:51:46;;;;;;;20.07;12.90;;;;;;;-0.45;83.37;98672.41;5072453;28;20294;-55
2022/01/06 03:54:12;;;;;;;15.93;10.40;;;;;;;-0.33;83.16;98686.91;5071787;28;20285;-62
2022/01/06 03:56:37;;;;;;;13.77;10.50;;;;;;;-0.33;83.08;98676.47;5071712;28;20136;-58
2022/01/06 03:59:04;;;;;;;16.70;11.13;;;;;;;-0.36;82.84;98666.28;5071970;28;20036;-58
2022/01/06 04:01:30;;;;;;;14.53;10.47;;;;;;;-0.43;83.26;98664.41;5071715;28;20044;-58
2022/01/06 04:03:56;;;;;;;14.07;9.50;;;;;;;-0.37;82.81;98669.88;5072088;28;20306;-57
2022/01/06 04:06:21;;;;;;;17.73;10.37;;;;;;;-0.45;82.94;98663.72;5072404;28;20542;-55
2022/01/06 04:08:47;;;;;;;14.07;9.90;;;;;;;-0.61;82.72;98632.94;5071734;28;20131;-61
2022/01/06 04:11:13;;;;;;;12.60;10.50;;;;;;;-0.44;83.50;98647.88;5071458;28;20127;-54
2022/01/06 04:13:38;;;;;;;14.63;10.43;;;;;;;-0.32;83.33;98672.88;5071712;28;20033;-58
2022/01/06 04:16:08;;;;;;;15.63;10.60;;;;;;;-0.29;83.49;98674.38;5071613;28;20043;-57
2022/01/06 04:18:34;;;;;;;15.23;9.13;;;;;;;-0.21;82.68;98669.25;5071790;28;20044;-56
2022/01/06 04:21:00;;;;;;;14.50;10.00;;;;;;;-0.14;82.65;98661.66;5071779;28;20273;-59
2022/01/06 04:23:25;;;;;;;13.30;9.30;;;;;;;0.04;82.40;98683.47;5072071;28;20447;-57
2022/01/06 04:25:51;;;;;;;13.50;7.87;;;;;;;0.01;82.07;98662.81;5071735;28;20079;-55
2022/01/06 04:28:16;;;;;;;12.57;7.47;;;;;;;-0.25;81.64;98622.63;5071653;28;20032;-59
2022/01/06 04:30:42;;;;;;;12.50;8.47;;;;;;;0.07;81.90;98670.06;5074400;28;20169;-59
2022/01/06 04:33:07;;;;;;;14.30;8.33;;;;;;;0.10;82.21;98668.97;5074399;28;20380;-57
2022/01/06 04:35:33;;;;;;;8.60;6.90;;;;;;;-0.06;81.87;98649.47;5075838;28;20070;-56
2022/01/06 04:37:59;;;;;;;8.90;5.73;;;;;;;-0.11;81.26;98645.66;5075490;28;20458;-54
2022/01/06 04:40:24;;;;;;;9.27;5.67;;;;;;;-0.26;81.46;98649.75;5075724;28;20032;-54
2022/01/06 04:42:50;;;;;;;12.67;6.30;;;;;;;-0.43;82.35;98641.69;5075410;28;20131;-55
2022/01/06 04:45:15;;;;;;;7.07;5.50;;;;;;;-0.55;82.51;98635.00;5075172;28;20464;-56
2022/01/06 04:47:42;;;;;;;8.40;5.83;;;;;;;-0.54;82.80;98667.22;5075248;28;20649;-56
2022/01/06 04:50:08;;;;;;;8.37;6.30;;;;;;;-0.71;82.96;98650.47;5075088;28;20075;-56
2022/01/06 04:52:34;;;;;;;6.43;5.43;;;;;;;-1.08;82.91;98600.81;5075460;28;20341;-57
2022/01/06 04:54:59;;;;;;;7.13;5.37;;;;;;;-0.82;83.38;98646.25;5074799;28;20036;-57
2022/01/06 04:57:25;;;;;;;6.50;5.23;;;;;;;-0.74;83.31;98645.53;5074846;28;20438;-58
2022/01/06 04:59:50;;;;;;;9.47;5.00;;;;;;;-0.74;83.12;98635.91;5074889;28;20081;-57
2022/01/06 05:02:16;;;;;;;6.53;5.10;;;;;;;-0.63;83.24;98647.97;5074817;28;20036;-59
2022/01/06 05:04:42;;;;;;;6.60;4.57;;;;;;;-0.55;82.72;98655.94;5073394;28;20521;-62
2022/01/06 05:07:07;;;;;;;10.37;5.07;;;;;;;-0.59;82.06;98641.47;5075075;28;20086;-63
2022/01/06 05:09:33;;;;;;;9.87;6.20;;;;;;;-0.51;82.51;98643.38;5074464;28;20111;-56
2022/01/06 05:11:58;;;;;;;7.83;5.93;;;;;;;-0.57;81.47;98642.19;5074621;28;20044;-58
2022/01/06 05:14:24;;;;;;;5.33;3.97;;;;;;;-0.56;80.97;98646.44;5074221;28;20479;-60
2022/01/06 05:16:50;;;;;;;5.70;5.10;;;;;;;-0.49;81.45;98659.75;5073122;28;20041;-56
2022/01/06 05:19:15;;;;;;;7.57;4.90;;;;;;;-0.65;81.17;98640.25;5074626;28;20115;-59
2022/01/06 05:21:41;;;;;;;5.23;4.63;;;;;;;-0.64;81.18;98654.16;5075045;28;20679;-58
2022/01/06 05:24:12;;;;;;;6.57;4.73;;;;;;;-0.90;81.24;98613.94;5074303;28;20044;-57
2022/01/06 05:26:39;;;;;;;6.93;4.90;;;;;;;-0.66;81.43;98658.69;5074489;28;20404;-55
2022/01/06 05:29:13;;;;;;;10.17;5.73;;;;;;;-0.67;80.84;98652.66;5074423;28;20259;-57
2022/01/06 05:31:39;;;;;;;6.80;4.87;;;;;;;-0.68;80.74;98647.56;5074270;28;20741;-59
2022/01/06 05:34:05;;;;;;;7.70;4.30;;;;;;;-0.57;80.48;98657.03;5074323;28;20773;-57
2022/01/06 05:36:32;;;;;;;5.47;4.20;;;;;;;-0.60;80.74;98659.91;5074769;28;20749;-58
2022/01/06 05:38:58;;;;;;;9.00;5.33;;;;;;;-0.75;80.75;98643.88;5074499;28;20270;-55
2022/01/06 05:41:24;;;;;;;4.90;4.40;;;;;;;-0.74;81.29;98656.81;5073153;28;20595;-59
2022/01/06 05:43:50;;;;;;;9.00;4.23;;;;;;;-0.71;81.47;98650.47;5074279;28;20114;-57
2022/01/06 05:46:16;;;;;;;7.13;4.80;;;;;;;-0.69;80.94;98644.13;5073981;28;20267;-55
2022/01/06 05:48:44;;;;;;;6.27;4.80;;;;;;;-0.57;81.03;98654.44;5073900;28;20624;-54
2022/01/06 05:51:09;;;;;;;6.70;4.70;;;;;;;-0.54;80.65;98641.88;5073946;28;20389;-59
2022/01/06 05:53:35;;;;;;;7.70;5.43;;;;;;;-0.46;80.51;98649.00;5074481;28;20683;-59
2022/01/06 05:56:00;;;;;;;6.07;4.97;;;;;;;-0.65;80.55;98629.81;5074070;28;20060;-54
2022/01/06 05:58:26;;;;;;;6.80;4.73;;;;;;;-0.70;80.94;98636.44;5073849;28;20550;-59
2022/01/06 06:00:52;;;;;;;7.80;5.00;;;;;;;-0.66;80.75;98653.47;5073611;28;20079;-58
2022/01/06 06:03:17;;;;;;;8.63;4.87;;;;;;;-0.78;79.56;98645.00;5073699;28;20062;-55
2022/01/06 06:05:43;;;;;;;4.83;3.73;;;;;;;-0.91;79.50;98620.13;5073917;28;20078;-57
2022/01/06 06:08:09;;;;;;;6.77;4.33;;;;;;;-0.67;79.54;98657.06;5074137;28;20497;-59
2022/01/06 06:10:36;;;;;;;13.53;5.33;;;;;;;-0.55;79.96;98666.38;5072347;28;20040;-57
2022/01/06 06:13:02;;;;;;;9.50;3.80;;;;;;;-0.66;79.34;98645.63;5073659;28;20259;-57
2022/01/06 06:15:28;;;;;;;5.00;4.07;;;;;;;-0.53;79.27;98672.28;5073673;28;20804;-59
2022/01/06 06:17:53;;;;;;;4.73;3.33;;;;;;;-0.50;78.70;98674.63;5072306;28;20055;-56
2022/01/06 06:20:19;;;;;;;7.00;4.67;;;;;;;-0.45;79.24;98687.25;5074419;28;20270;-60
2022/01/06 06:22:45;;;;;;;6.77;3.63;;;;;;;-0.70;78.79;98637.25;5084142;28;20041;-57
2022/01/06 06:25:10;;;;;;;5.83;3.60;;;;;;;-0.47;78.87;98684.78;5086523;28;20141;-54
2022/01/06 06:27:36;;;;;;;7.20;3.33;;;;;;;-0.55;78.62;98679.47;5082322;28;20028;-59
2022/01/06 06:30:03;;;;;;;5.63;3.73;;;;;;;-0.60;79.28;98663.34;5086107;28;20098;-51
2022/01/06 06:32:33;;;;;;;4.53;3.73;;;;;;;-0.47;79.66;98663.88;5078766;28;20474;-58
2022/01/06 06:34:59;;;;;;;9.10;4.47;;;;;;;-0.39;79.36;98671.81;5073706;28;20271;-61
2022/01/06 06:37:24;;;;;;;5.50;4.47;;;;;;;-0.36;79.46;98687.22;5074533;28;20265;-58
2022/01/06 06:39:50;;;;;;;5.23;4.40;;;;;;;-0.44;79.14;98674.03;5074472;28;20059;-62
2022/01/06 06:42:15;;;;;;;7.40;4.63;;;;;;;-0.52;79.18;98679.16;5073914;28;20553;-56
2022/01/06 06:44:41;;;;;;;5.57;3.93;;;;;;;-0.51;79.12;98678.19;5073296;28;20056;-55
2022/01/06 06:47:07;;;;;;;5.90;4.07;;;;;;;-0.47;78.24;98684.78;5072826;28;20583;-56
2022/01/06 06:49:36;;;;;;;6.63;4.40;;;;;;;-0.38;78.91;98690.94;5073071;28;20040;-58
2022/01/06 06:52:02;;;;;;;;;;;;;;;-0.19;78.86;98703.13;5073765;28;20401;-58
2022/01/06 06:54:27;;;;;;;5.73;3.70;;;;;;;-0.39;76.26;98694.53;5073196;28;20009;-59
2022/01/06 06:56:53;;;;;;;4.73;3.37;;;;;;;-0.42;76.68;98705.28;5073035;28;20478;-57
2022/01/06 06:59:18;;;;;;;5.10;3.23;;;;;;;-0.49;75.67;98704.22;5073465;28;20535;-58
2022/01/06 07:01:44;;;;;;;4.90;3.53;;;;;;;-0.46;76.77;98699.50;5073237;28;20051;-55
2022/01/06 07:04:09;;;;;;;4.63;3.50;;;;;;;-0.47;76.05;98700.47;5072356;28;20035;-60
2022/01/06 07:06:35;;;;;;;5.73;4.30;;;;;;;-0.48;76.83;98700.63;5072695;28;20059;-57
2022/01/06 07:09:01;;;;;;;4.43;4.03;;;;;;;-0.64;76.69;98677.69;5072921;28;20492;-50
2022/01/06 07:11:26;;;;;;;7.10;3.57;;;;;;;-0.53;75.92;98706.28;5072370;28;20157;-58
2022/01/06 07:13:52;;;;;;;5.17;3.93;;;;;;;-0.58;76.84;98721.56;5072426;28;20428;-54
2022/01/06 07:16:17;;;;;;;9.10;4.33;;;;;;;-0.70;75.85;98709.63;5072603;28;20039;-56
2022/01/06 07:18:43;;;;;;;3.83;3.27;;;;;;;-0.78;76.11;98730.41;5072095;28;20114;-55
2022/01/06 07:21:08;;;;;;;4.03;3.47;;;;;;;-0.88;76.75;98726.97;5072289;28;20453;-55
2022/01/06 07:23:34;;;;;;;8.10;4.00;;;;;;;-0.99;76.81;98717.50;5072866;28;20043;-52
2022/01/06 07:25:59;;;;;;;6.73;4.30;;;;;;;-0.98;77.29;98727.81;5072483;28;20033;-61
2022/01/06 07:28:25;;;;;;;4.63;3.53;;;;;;;-0.95;76.49;98717.09;5072316;28;20028;-60
2022/01/06 07:30:50;;;;;;;6.07;3.47;;;;;;;-0.93;77.12;98715.16;5072419;28;20043;-53
2022/01/06 07:33:16;;;;;;;5.67;4.00;;;;;;;-0.83;76.38;98727.41;5072067;28;20111;-53
2022/01/06 07:35:41;;;;;;;5.77;4.00;;;;;;;-0.81;76.28;98725.47;5072010;28;20041;-57
2022/01/06 07:38:07;;;;;;;6.57;4.60;;;;;;;-0.80;76.25;98733.19;5072969;28;20491;-60
2022/01/06 07:40:33;;;;;;;6.10;3.80;;;;;;;-0.75;76.65;98740.59;5072193;28;20033;-57
2022/01/06 07:42:58;;;;;;;3.73;3.30;;;;;;;-0.70;75.81;98736.59;5072092;28;20043;-54
2022/01/06 07:45:27;;;;;;;6.15;4.07;;;;;;;-0.75;76.43;98736.19;5072140;28;20488;-58
2022/01/06 07:48:01;;;;;;;4.33;3.50;;;;;;;-0.70;76.53;98751.44;5072594;28;20059;-59
2022/01/06 07:50:32;;;;;;;5.67;3.97;;;;;;;-0.77;76.73;98732.06;5073294;28;20454;-60
2022/01/06 07:52:58;;;;;;;5.17;3.60;;;;;;;-0.68;77.21;98737.25;5072959;28;20289;-61
2022/01/06 07:55:25;;;;;;;8.40;5.37;;;;;;;-0.71;76.83;98737.56;5072629;28;20693;-54
2022/01/06 07:57:50;;;;;;;8.80;4.63;;;;;;;-0.69;76.53;98735.63;5072388;28;20036;-61
2022/01/06 08:00:18;;;;;;;5.80;3.60;;;;;;;-1.22;75.99;98650.84;5072058;28;20681;-58
2022/01/06 08:02:45;;;;;;;6.27;4.70;;;;;;;-0.53;75.56;98755.13;5072010;28;20036;-60
2022/01/06 08:05:13;;;;;;;7.70;4.53;;;;;;;-0.60;75.71;98752.25;5071676;28;20277;-61
2022/01/06 08:07:39;;;;;;;9.63;5.13;;;;;;;-0.85;76.20;98734.56;5072629;28;20271;-60
2022/01/06 08:10:06;;;;;;;8.70;5.67;;;;;;;-0.82;76.54;98745.56;5072248;28;20040;-57
2022/01/06 08:12:31;;;;;;;9.80;5.37;;;;;;;-0.96;76.57;98741.56;5070857;28;20074;-58
2022/01/06 08:14:57;;;;;;;8.87;5.43;;;;;;;-0.87;77.01;98759.97;5071758;28;20255;-59
2022/01/06 08:17:22;;;;;;;7.70;5.00;;;;;;;-0.86;77.03;98761.66;5072329;28;20062;-55
2022/01/06 08:19:48;;;;;;;11.53;5.70;;;;;;;-0.91;76.29;98756.81;5072155;28;20029;-59
2022/01/06 08:22:14;;;;;;;9.03;6.40;;;;;;;-1.03;76.60;98745.72;5071434;28;20039;-56
2022/01/06 08:24:40;;;;;;;8.43;5.73;;;;;;;-0.95;77.14;98761.50;5071967;28;20040;-61
2022/01/06 08:27:08;;;;;;;9.90;5.60;;;;;;;-1.08;77.11;98742.69;5071730;28;20052;-59
2022/01/06 08:29:39;;;;;;;7.53;6.20;;;;;;;-0.93;77.26;98743.91;5071294;28;20044;-56
2022/01/06 08:32:06;;;;;;;7.13;5.53;;;;;;;-0.75;76.42;98766.72;5071525;28;20399;-57
2022/01/06 08:34:31;;;;;;;9.37;6.87;;;;;;;-0.78;76.14;98765.22;5071522;28;20266;-59
2022/01/06 08:36:57;;;;;;;8.63;7.07;;;;;;;-0.88;77.16;98747.88;5072322;28;20563;-58
2022/01/06 08:39:22;;;;;;;7.80;6.53;;;;;;;-0.79;77.42;98752.28;5072363;28;20039;-56
2022/01/06 08:41:50;;;;;;;11.67;9.97;;;;;;;-0.71;76.98;98760.25;5070225;28;20124;-59
2022/01/06 08:44:15;;;;;;;15.90;14.20;;;;;;;-0.61;77.92;98776.72;5071350;28;20028;-56
2022/01/06 08:46:48;;;;;;;10.63;7.27;;;;;;;-0.74;77.65;98766.59;5071234;28;20287;-55
2022/01/06 08:49:16;;;;;;;11.10;7.33;;;;;;;-0.70;77.26;98782.81;5071646;28;20275;-58
2022/01/06 08:51:42;;;;;;;16.80;7.22;;;;;;;-0.81;77.05;98772.53;5071730;28;20857;-58
2022/01/06 08:54:08;;;;;;;8.83;6.57;;;;;;;-0.73;77.13;98789.16;5072220;28;20502;-60
2022/01/06 08:56:35;;;;;;;11.43;6.60;;;;;;;-0.74;77.05;98781.44;5071063;28;20275;-57
2022/01/06 08:59:01;;;;;;;9.70;7.13;;;;;;;-0.64;77.17;98787.47;5071456;28;20044;-54
2022/01/06 09:01:27;;;;;;;7.93;6.83;;;;;;;-0.82;77.79;98784.75;5071330;28;20267;-59
2022/01/06 09:03:53;;;;;;;11.23;7.03;;;;;;;-0.87;78.50;98783.50;5071236;28;20039;-59
2022/01/06 09:06:20;;;;;;;11.70;7.90;;;;;;;-0.84;78.24;98783.25;5071944;28;20642;-60
2022/01/06 09:08:46;;;;;;;9.73;7.27;;;;;;;-0.73;78.32;98783.09;5071832;28;20025;-60
2022/01/06 09:11:12;;;;;;;13.13;7.50;;;;;;;-0.51;77.89;98793.25;5070780;28;20297;-59
2022/01/06 09:13:37;;;;;;;7.80;6.17;;;;;;;-0.47;77.34;98784.16;5071350;28;20638;-60
2022/01/06 09:16:03;;;;;;;8.13;6.17;;;;;;;-0.31;76.99;98796.63;5071261;28;20048;-60
2022/01/06 09:18:29;;;;;;;12.40;5.60;;;;;;;-0.39;77.05;98784.28;5075067;28;20060;-59
2022/01/06 09:20:54;;;;;;;10.80;6.60;;;;;;;-0.28;76.70;98803.41;5074878;28;20029;-64
2022/01/06 09:23:20;;;;;;;9.83;7.23;;;;;;;-0.35;76.40;98803.94;5075392;28;20047;-57
2022/01/06 09:25:45;;;;;;;9.63;6.70;;;;;;;-0.41;76.10;98806.31;5074416;28;20043;-60
2022/01/06 09:28:11;;;;;;;10.30;7.90;;;;;;;-0.50;76.56;98821.06;5074609;28;20404;-59
2022/01/06 09:30:36;;;;;;;11.50;7.50;;;;;;;-0.57;77.14;98819.97;5073217;28;20060;-54
2022/01/06 09:33:02;;;;;;;11.47;7.83;;;;;;;-0.56;77.18;98805.94;5074391;28;20036;-55
2022/01/06 09:35:28;;;;;;;11.93;7.30;;;;;;;-0.64;75.97;98775.22;5074282;28;20498;-55
2022/01/06 09:37:54;;;;;;;9.03;6.80;;;;;;;-0.41;75.21;98814.97;5074677;28;20035;-58
2022/01/06 09:40:20;;;;;;;8.03;5.43;;;;;;;-0.49;74.82;98812.25;5074292;28;20267;-58
2022/01/06 09:42:46;;;;;;;9.20;5.83;;;;;;;-0.54;74.59;98804.00;5074422;28;20555;-60
2022/01/06 09:45:12;;;;;;;12.40;5.67;;;;;;;-0.49;75.34;98817.47;5074403;28;20139;-54
2022/01/06 09:48:04;;;;;;;7.47;5.83;;;;;;;-0.52;75.17;98817.75;5073904;28;20063;-60
2022/01/06 09:50:30;;;;;;;10.33;7.63;;;;;;;-0.65;75.41;98815.41;5074002;28;20275;-53
2022/01/06 09:52:56;;;;;;;10.00;6.10;;;;;;;-0.64;75.63;98824.06;5074424;28;20370;-61
2022/01/06 09:55:21;;;;;;;9.40;5.87;;;;;;;-0.73;75.33;98804.00;5074450;28;20377;-54
2022/01/06 09:57:59;;;;;;;10.43;7.23;;;;;;;-0.71;75.57;98815.16;5073985;28;20040;-60
2022/01/06 10:00:30;;;;;;;8.00;6.63;;;;;;;-0.81;74.90;98824.78;5073821;28;20039;-60
2022/01/06 10:02:58;;;;;;;6.83;5.17;;;;;;;-0.99;74.84;98815.00;5072672;28;20359;-59
2022/01/06 10:05:25;;;;;;;10.65;5.03;;;;;;;-0.98;75.03;98827.09;5073676;28;20655;-59
2022/01/06 10:07:53;;;;;;;8.20;5.47;;;;;;;-0.89;75.83;98835.09;5074589;28;20117;-58
2022/01/06 10:10:24;;;;;;;8.50;4.73;;;;;;;-1.02;74.84;98836.19;5074127;28;20278;-60
2022/01/06 10:12:58;;;;;;;7.77;4.87;;;;;;;-1.10;75.12;98840.44;5073902;28;20287;-62
2022/01/06 10:15:27;;;;;;;6.63;5.10;;;;;;;-1.15;75.21;98833.03;5073539;28;20356;-56
2022/01/06 10:17:53;;;;;;;;;;;;;;;-0.95;75.36;98852.97;5073941;28;20267;-58
2022/01/06 10:20:26;;;;;;;6.80;4.70;;;;;;;-1.16;74.92;98822.69;5073770;28;19955;-52
2022/01/06 10:22:57;;;;;;;5.77;4.30;;;;;;;-0.90;74.55;98859.56;5072846;28;20662;-57
2022/01/06 10:25:26;;;;;;;11.00;6.23;;;;;;;-1.14;74.33;98855.56;5073745;28;20266;-61
2022/01/06 10:27:56;;;;;;;6.70;5.80;;;;;;;-1.15;74.63;98863.53;5073997;28;20615;-59
2022/01/06 10:30:25;;;;;;;6.57;4.70;;;;;;;-1.14;74.52;98873.84;5073579;28;20044;-54
2022/01/06 10:32:56;;;;;;;11.73;7.60;;;;;;;-1.18;74.28;98872.44;5073234;28;20279;-56
2022/01/06 10:35:22;;;;;;;8.63;4.93;;;;;;;-1.25;73.97;98873.94;5072904;28;20653;-59
2022/01/06 10:37:48;;;;;;;8.37;5.77;;;;;;;-1.18;74.38;98874.22;5073601;28;20258;-60
2022/01/06 10:40:22;;;;;;;5.10;4.33;;;;;;;-1.20;73.32;98884.81;5073181;28;20124;-57
2022/01/06 10:42:55;;;;;;;8.00;5.23;;;;;;;-1.22;73.25;98878.91;5071530;28;20733;-56
2022/01/06 10:45:25;;;;;;;7.87;5.10;;;;;;;-1.19;74.24;98886.47;5073072;28;20271;-56
2022/01/06 10:48:00;;;;;;;8.57;6.20;;;;;;;-1.19;73.35;98883.84;5071556;28;20678;-56
2022/01/06 10:50:32;;;;;;;7.13;5.40;;;;;;;-1.51;73.52;98844.06;5072590;28;20788;-58
2022/01/06 10:53:00;;;;;;;9.73;5.60;;;;;;;-1.28;73.59;98887.28;5072905;28;20749;-58
2022/01/06 10:55:46;;;;;;;5.25;4.72;;;;;;;-1.20;73.50;98899.66;5073057;28;20748;-55
2022/01/06 10:58:25;;;;;;;12.63;4.57;;;;;;;-1.30;73.40;98902.25;5072582;28;20040;-57
2022/01/06 11:01:00;;;;;;;7.63;4.57;;;;;;;-1.35;73.22;98917.50;5072672;28;20271;-59
2022/01/06 11:03:29;;;;;;;10.57;5.20;;;;;;;-1.46;73.55;98909.75;5072443;28;20032;-59
2022/01/06 11:05:59;;;;;;;7.07;4.50;;;;;;;-1.42;74.10;98916.38;5072686;28;20308;-56
2022/01/06 11:08:32;;;;;;;5.93;4.00;;;;;;;-1.37;74.03;98920.25;5073795;28;20109;-59
2022/01/06 11:13:38;;;;;;;7.57;5.00;;;;;;;-1.34;73.75;98916.53;5072348;28;20278;-54
2022/01/06 11:16:05;;;;;;;7.97;5.30;;;;;;;-1.28;73.94;98918.63;5072419;28;20263;-60
2022/01/06 11:18:31;;;;;;;6.70;5.20;;;;;;;-1.47;73.74;98887.22;5072491;28;20271;-58
2022/01/06 11:21:26;;;;;;;7.37;4.93;;;;;;;-1.19;74.67;98925.66;5072131;28;20646;-63
2022/01/06 11:24:14;;;;;;;8.33;5.50;;;;;;;-1.27;74.26;98922.88;5068119;28;20298;-58
2022/01/06 11:26:43;;;;;;;11.18;5.30;;;;;;;-1.52;74.09;98894.63;5071945;28;20267;-59
2022/01/06 11:29:10;;;;;;;8.55;6.88;;;;;;;-1.33;74.91;98931.25;5072227;28;20032;-56
2022/01/06 11:31:41;;;;;;;9.50;5.70;;;;;;;-1.34;75.21;98930.44;5072084;28;20076;-56
2022/01/06 11:34:13;;;;;;;12.20;6.27;;;;;;;-1.28;75.03;98929.06;5072142;28;20309;-62
2022/01/06 11:36:39;;;;;;;9.37;6.47;;;;;;;-1.36;74.48;98921.06;5072224;28;20287;-60
2022/01/06 11:39:08;;;;;;;9.67;5.67;;;;;;;-1.47;74.36;98919.34;5072908;28;20262;-61
2022/01/06 11:41:38;;;;;;;6.38;5.18;;;;;;;-1.51;75.72;98930.19;5071750;28;20690;-58
2022/01/06 11:44:19;;;;;;;8.27;7.20;;;;;;;-1.53;75.00;98930.34;5072264;28;20403;-59
2022/01/06 11:46:46;;;;;;;11.63;6.73;;;;;;;-1.68;74.59;98906.38;5071644;28;20324;-57